SBCY/CGB METAR and TAF weather

Enter ICAO airport designator
Station Type Date Time Source
SBCY METAR 2020/12/05 06:00 UTC NOAA

SBCY 050600Z 32002KT 9999 SCT020 BKN100 25/23 Q1012


Station Type Date Time Source
SBCY Decoded METAR 2020/12/05 06:00 UTC NOAA

Cuiaba Aeroporto , Brazil (SBCY) 15-39S 056-06W 182M
Dec 05, 2020 - 01:00 AM EST / 2020.12.05 0600 UTC
Wind: from the NW (320 degrees) at 2 MPH (2 KT):0
Visibility: greater than 7 mile(s):0
Sky conditions: mostly cloudy
Temperature: 77 F (25 C)
Dew Point: 73 F (23 C)
Relative Humidity: 88%
Pressure (altimeter): 29.88 in. Hg (1012 hPa)
ob: SBCY 050600Z 32002KT 9999 SCT020 BKN100 25/23 Q1012
cycle: 6

Station Type Date Time Source
SBCY TAF 2020/12/05 06:27 UTC NOAA

TAF SBCY 050203Z 0506/0606 29005KT 9999 FEW020 TN25/0509Z TX33/0518Z
BECMG 0510/0512 22007KT
TEMPO 0516/0521 22017KT 4000 TSRA BKN015 FEW025CB PROB30 0521/0524 TS BKN020 FEW030CB
RMK PHI

Example: see airport list